Aylett, Virginia
Current Conditions -  °F | °C
As of 6:55 AM on Friday 19 Dec 2014 (Local Time) from KXSA Reporting Station
Clear Clear  
Wind Chill: 33°   Ceiling: Unl
Heat Index: 33°   Visibility: 10mi
Dew Point: 22°   Wind: 0mph
Humidity: 64%   Direction: NA
Pressure: 30.15"   Gusts: NA
Location:  37.79°N, 77.11°W
Report Text: KXSA 191155Z AUTO 00000KT 10SM CLR 00/M06 A3015 RMK AO2 T00041056 10015 21001
Loading
Personal Weather Stations






























Interactive Weather Map New forecast layout! Learn more

10-Day Weather Forecast

Advertisements
Track Severe Weather on mobile